Time;durP1;ratioP1;P1;durP2;ratioP2;P2;SDS_P1;SDS_P2;PMS_P1;PMS_P2;Temp;Humidity;BMP_temperature;BMP_pressure;BME280_temperature;BME280_humidity;BME280_pressure;Samples;Min_cycle;Max_cycle;Signal;HPM_P1;HPM_P2
2022/02/24 00:01:45;;;;;;;15.55;5.15;;;;;;;;;;5093904;28;20089;-76
2022/02/24 00:04:11;;;;;;;15.20;4.60;;;;;;;;;;5070583;28;20021;-76
2022/02/24 00:06:37;;;;;;;12.75;4.15;;;;;;;;;;5074109;28;20074;-76
2022/02/24 00:09:04;;;;;;;12.75;4.40;;;;;;;;;;5073525;28;20074;-76
2022/02/24 00:11:32;;;;;;;13.13;4.35;;;;;;;;;;5073325;28;20077;-76
2022/02/24 00:13:58;;;;;;;14.18;4.93;;;;;;;;;;5073817;28;20025;-76
2022/02/24 00:16:24;;;;;;;14.48;4.75;;;;;;;;;;5073800;28;20028;-76
2022/02/24 00:18:50;;;;;;;14.23;4.82;;;;;;;;;;5073823;28;20061;-76
2022/02/24 00:21:16;;;;;;;12.20;4.40;;;;;;;;;;5081510;28;20031;-76
2022/02/24 00:23:42;;;;;;;15.73;4.75;;;;;;;;;;5093766;28;20077;-76
2022/02/24 00:26:08;;;;;;;12.75;4.68;;;;;;;;;;5094311;28;20394;-76
2022/02/24 00:28:34;;;;;;;15.35;5.30;;;;;;;;;;5094164;28;20028;-76
2022/02/24 00:31:00;;;;;;;13.50;4.65;;;;;;;;;;5093974;28;20115;-76
2022/02/24 00:33:26;;;;;;;14.93;4.75;;;;;;;;;;5074895;28;20020;-77
2022/02/24 00:35:52;;;;;;;13.88;5.13;;;;;;;;;;5094009;28;20024;-76
2022/02/24 00:38:20;;;;;;;15.02;5.43;;;;;;;;;;5093937;28;20441;-76
2022/02/24 00:40:46;;;;;;;13.00;4.53;;;;;;;;;;5093569;28;20497;-76
2022/02/24 00:43:13;;;;;;;12.10;4.50;;;;;;;;;;5078120;28;20071;-76
2022/02/24 00:45:39;;;;;;;22.05;5.28;;;;;;;;;;5073200;28;20032;-76
2022/02/24 00:48:07;;;;;;;14.75;4.68;;;;;;;;;;5073383;28;20112;-76
2022/02/24 00:50:33;;;;;;;13.55;4.90;;;;;;;;;;5073422;28;20048;-76
2022/02/24 00:52:59;;;;;;;14.55;4.68;;;;;;;;;;5073813;28;20101;-76
2022/02/24 00:55:26;;;;;;;14.65;5.18;;;;;;;;;;5073251;28;20047;-76
2022/02/24 00:57:53;;;;;;;13.98;4.90;;;;;;;;;;5073365;28;20021;-76
2022/02/24 01:00:19;;;;;;;11.52;4.32;;;;;;;;;;5072854;28;20025;-76
2022/02/24 01:02:45;;;;;;;13.05;4.65;;;;;;;;;;5072671;28;20020;-76
2022/02/24 01:05:11;;;;;;;14.43;4.93;;;;;;;;;;5086348;28;20027;-76
2022/02/24 01:07:38;;;;;;;16.42;5.20;;;;;;;;;;5093140;28;20047;-76
2022/02/24 01:10:04;;;;;;;14.45;4.53;;;;;;;;;;5092702;28;20168;-76
2022/02/24 01:12:31;;;;;;;14.60;5.22;;;;;;;;;;5093209;28;20308;-76
2022/02/24 01:15:03;;;;;;;16.17;4.55;;;;;;;;;;5093248;28;20036;-76
2022/02/24 01:17:29;;;;;;;14.80;4.97;;;;;;;;;;5093346;28;20421;-76
2022/02/24 01:19:55;;;;;;;14.85;5.07;;;;;;;;;;5074811;28;20030;-76
2022/02/24 01:22:21;;;;;;;17.95;5.45;;;;;;;;;;5075151;28;20025;-76
2022/02/24 01:24:48;;;;;;;15.93;4.40;;;;;;;;;;5054675;28;20028;-76
2022/02/24 01:27:14;;;;;;;17.13;5.47;;;;;;;;;;5073158;28;20398;-76
2022/02/24 01:29:40;;;;;;;14.30;5.05;;;;;;;;;;5072687;28;20028;-76
2022/02/24 01:32:06;;;;;;;18.90;4.97;;;;;;;;;;5072376;28;20027;-76
2022/02/24 01:34:33;;;;;;;15.48;4.72;;;;;;;;;;5072553;28;20033;-76
2022/02/24 01:36:59;;;;;;;18.20;4.88;;;;;;;;;;5072763;28;20024;-76
2022/02/24 01:39:25;;;;;;;15.63;4.85;;;;;;;;;;5072781;28;20013;-76
2022/02/24 01:41:52;;;;;;;12.13;4.40;;;;;;;;;;5076232;28;20020;-76
2022/02/24 01:44:19;;;;;;;13.68;4.40;;;;;;;;;;5092770;28;20444;-76
2022/02/24 01:46:45;;;;;;;16.33;4.80;;;;;;;;;;5092984;28;20407;-76
2022/02/24 01:49:11;;;;;;;13.80;4.18;;;;;;;;;;5074911;28;20122;-76
2022/02/24 01:51:38;;;;;;;12.07;4.90;;;;;;;;;;5092085;28;20032;-76
2022/02/24 01:54:05;;;;;;;9.20;3.58;;;;;;;;;;5092811;28;20074;-76
2022/02/24 01:56:31;;;;;;;14.00;5.00;;;;;;;;;;5092925;28;20107;-76
2022/02/24 01:58:58;;;;;;;12.57;4.65;;;;;;;;;;5092511;28;20017;-76
2022/02/24 02:01:24;;;;;;;17.52;5.07;;;;;;;;;;5076671;28;20650;-76
2022/02/24 02:03:54;;;;;;;17.30;4.80;;;;;;;;;;5094406;28;20024;-76
2022/02/24 02:06:21;;;;;;;11.13;4.20;;;;;;;;;;5076755;28;20028;-77
2022/02/24 02:08:47;;;;;;;14.68;4.93;;;;;;;;;;5058593;28;20040;-76
2022/02/24 02:11:13;;;;;;;14.80;4.90;;;;;;;;;;5058141;28;20032;-77
2022/02/24 02:13:39;;;;;;;15.27;4.97;;;;;;;;;;5076258;28;20043;-76
2022/02/24 02:16:07;;;;;;;12.10;4.47;;;;;;;;;;5077068;28;20031;-76
2022/02/24 02:18:34;;;;;;;12.50;4.45;;;;;;;;;;5076743;28;20028;-77
2022/02/24 02:21:00;;;;;;;15.40;5.05;;;;;;;;;;5082540;28;20604;-76
2022/02/24 02:23:26;;;;;;;17.58;4.78;;;;;;;;;;5095906;28;20062;-76
2022/02/24 02:25:52;;;;;;;12.90;4.45;;;;;;;;;;5096335;28;20031;-76
2022/02/24 02:28:18;;;;;;;12.77;4.18;;;;;;;;;;5078062;28;20063;-76
2022/02/24 02:30:45;;;;;;;19.40;5.20;;;;;;;;;;5096157;28;20416;-76
2022/02/24 02:33:11;;;;;;;16.75;4.38;;;;;;;;;;5096487;28;20498;-76
2022/02/24 02:35:37;;;;;;;14.27;4.38;;;;;;;;;;5096497;28;20038;-76
2022/02/24 02:38:04;;;;;;;15.00;4.50;;;;;;;;;;5096003;28;20050;-76
2022/02/24 02:40:30;;;;;;;12.98;3.78;;;;;;;;;;5096000;28;20031;-76
2022/02/24 02:42:56;;;;;;;10.73;3.72;;;;;;;;;;5083263;28;20024;-76
2022/02/24 02:45:22;;;;;;;15.40;4.55;;;;;;;;;;5075694;28;20028;-76
2022/02/24 02:47:48;;;;;;;14.73;4.50;;;;;;;;;;5075726;28;20480;-76
2022/02/24 02:50:14;;;;;;;11.32;4.22;;;;;;;;;;5075352;28;20033;-76
2022/02/24 02:52:41;;;;;;;13.50;4.28;;;;;;;;;;5075774;28;20039;-76
2022/02/24 02:55:08;;;;;;;14.63;4.38;;;;;;;;;;5076028;28;20053;-76
2022/02/24 02:57:34;;;;;;;17.20;5.45;;;;;;;;;;5075383;28;20028;-76
2022/02/24 03:00:00;;;;;;;13.77;5.07;;;;;;;;;;5075273;28;20482;-76
2022/02/24 03:02:27;;;;;;;15.48;4.35;;;;;;;;;;5074790;28;20509;-76
2022/02/24 03:04:54;;;;;;;17.35;5.10;;;;;;;;;;5086221;28;20027;-76
2022/02/24 03:07:20;;;;;;;14.27;4.72;;;;;;;;;;5077597;28;20040;-76
2022/02/24 03:09:47;;;;;;;16.67;4.82;;;;;;;;;;5095783;28;20058;-76
2022/02/24 03:12:13;;;;;;;14.15;5.25;;;;;;;;;;5094859;28;20051;-76
2022/02/24 03:14:39;;;;;;;11.82;4.15;;;;;;;;;;5095565;28;20119;-76
2022/02/24 03:17:06;;;;;;;14.82;4.95;;;;;;;;;;5077074;28;20397;-76
2022/02/24 03:19:32;;;;;;;14.88;4.97;;;;;;;;;;5095451;28;20059;-76
2022/02/24 03:21:58;;;;;;;13.48;4.93;;;;;;;;;;5080423;28;20025;-76
2022/02/24 03:24:24;;;;;;;16.38;5.15;;;;;;;;;;5074913;28;20539;-76
2022/02/24 03:26:50;;;;;;;13.30;4.75;;;;;;;;;;5075258;28;20059;-76
2022/02/24 03:29:16;;;;;;;13.40;4.25;;;;;;;;;;5075078;28;20074;-76
2022/02/24 03:31:43;;;;;;;16.73;5.00;;;;;;;;;;5074286;28;20406;-76
2022/02/24 03:34:11;;;;;;;18.60;5.00;;;;;;;;;;5074713;28;20552;-76
2022/02/24 03:36:37;;;;;;;14.35;4.30;;;;;;;;;;5074720;28;20036;-76
2022/02/24 03:39:04;;;;;;;15.82;4.90;;;;;;;;;;5074791;28;20032;-76
2022/02/24 03:41:31;;;;;;;15.43;4.70;;;;;;;;;;5075265;28;20142;-76
2022/02/24 03:43:57;;;;;;;14.23;4.70;;;;;;;;;;5094867;28;20386;-76
2022/02/24 03:46:23;;;;;;;15.98;5.25;;;;;;;;;;5094993;28;20474;-76
2022/02/24 03:48:49;;;;;;;16.40;4.45;;;;;;;;;;5094768;28;20578;-76
2022/02/24 03:51:16;;;;;;;16.77;5.30;;;;;;;;;;5094572;28;20063;-76
2022/02/24 03:53:42;;;;;;;15.43;4.80;;;;;;;;;;5094290;28;20031;-76
2022/02/24 03:56:08;;;;;;;13.02;4.57;;;;;;;;;;5095139;28;20024;-76
2022/02/24 03:58:34;;;;;;;16.33;5.03;;;;;;;;;;5094604;28;20028;-76
2022/02/24 04:01:00;;;;;;;18.02;5.18;;;;;;;;;;5094579;28;20020;-76
2022/02/24 04:03:26;;;;;;;13.23;4.95;;;;;;;;;;5094609;28;20039;-76
2022/02/24 04:05:53;;;;;;;15.27;4.63;;;;;;;;;;5075715;28;20035;-76
2022/02/24 04:08:19;;;;;;;12.60;4.30;;;;;;;;;;5055896;28;20119;-76
2022/02/24 04:10:45;;;;;;;18.27;4.50;;;;;;;;;;5073976;28;20020;-76
2022/02/24 04:13:12;;;;;;;18.45;5.50;;;;;;;;;;5073223;28;20032;-76
2022/02/24 04:15:38;;;;;;;16.80;4.57;;;;;;;;;;5074189;28;20491;-76
2022/02/24 04:18:05;;;;;;;14.73;4.88;;;;;;;;;;5073797;28;20048;-76
2022/02/24 04:20:31;;;;;;;14.50;4.30;;;;;;;;;;5075989;28;20396;-76
2022/02/24 04:22:58;;;;;;;15.82;4.53;;;;;;;;;;5093191;28;20103;-76
2022/02/24 04:25:24;;;;;;;13.52;4.35;;;;;;;;;;5093955;28;20034;-76
2022/02/24 04:27:51;;;;;;;13.07;4.47;;;;;;;;;;5093977;28;20111;-76
2022/02/24 04:30:17;;;;;;;15.60;4.70;;;;;;;;;;5075757;28;20422;-76
2022/02/24 04:32:44;;;;;;;18.05;4.60;;;;;;;;;;5094083;28;20028;-76
2022/02/24 04:35:10;;;;;;;14.82;4.32;;;;;;;;;;5093633;28;20429;-76
2022/02/24 04:37:38;;;;;;;15.07;4.60;;;;;;;;;;5093745;28;20021;-76
2022/02/24 04:40:05;;;;;;;14.60;5.15;;;;;;;;;;5093654;28;20441;-76
2022/02/24 04:42:31;;;;;;;15.90;4.82;;;;;;;;;;5084178;28;20391;-76
2022/02/24 04:44:57;;;;;;;12.80;3.90;;;;;;;;;;5073687;28;20020;-76
2022/02/24 04:47:24;;;;;;;15.25;4.68;;;;;;;;;;5073045;28;20024;-76
2022/02/24 04:49:50;;;;;;;16.05;5.50;;;;;;;;;;5073125;28;20028;-76
2022/02/24 04:52:16;;;;;;;14.48;5.05;;;;;;;;;;5072643;28;20116;-76
2022/02/24 04:54:42;;;;;;;15.82;5.05;;;;;;;;;;5055131;28;20021;-76
2022/02/24 04:57:08;;;;;;;14.93;4.45;;;;;;;;;;5073310;28;20032;-76
2022/02/24 04:59:34;;;;;;;16.48;5.07;;;;;;;;;;5073051;28;20028;-76
2022/02/24 05:02:00;;;;;;;17.10;5.15;;;;;;;;;;5072677;28;20484;-76
2022/02/24 05:04:26;;;;;;;15.93;4.97;;;;;;;;;;5080262;28;20526;-76
2022/02/24 05:06:52;;;;;;;12.40;4.30;;;;;;;;;;5093468;28;20418;-76
2022/02/24 05:09:18;;;;;;;15.30;5.13;;;;;;;;;;5093137;28;20035;-76
2022/02/24 05:11:44;;;;;;;15.52;4.28;;;;;;;;;;5092594;28;20111;-76
2022/02/24 05:14:10;;;;;;;14.45;4.93;;;;;;;;;;5092760;28;20036;-76
2022/02/24 05:16:37;;;;;;;14.88;5.13;;;;;;;;;;5093255;28;20032;-76
2022/02/24 05:19:03;;;;;;;14.02;4.57;;;;;;;;;;5092632;28;20024;-76
2022/02/24 05:21:29;;;;;;;15.60;4.22;;;;;;;;;;5081952;28;20032;-76
2022/02/24 05:23:55;;;;;;;13.05;4.28;;;;;;;;;;5056834;28;20027;-76
2022/02/24 05:26:21;;;;;;;14.55;4.75;;;;;;;;;;5084208;28;20028;-76
2022/02/24 05:28:47;;;;;;;16.35;5.15;;;;;;;;;;5078869;28;20032;-76
2022/02/24 05:31:13;;;;;;;13.35;4.43;;;;;;;;;;5072493;28;20029;-76
2022/02/24 05:33:39;;;;;;;15.38;4.88;;;;;;;;;;5091114;28;20024;-76
2022/02/24 05:36:05;;;;;;;16.60;4.57;;;;;;;;;;5091968;28;20522;-76
2022/02/24 05:38:31;;;;;;;14.70;4.53;;;;;;;;;;5092863;28;20486;-76
2022/02/24 05:40:58;;;;;;;12.07;4.15;;;;;;;;;;5083885;28;20027;-77
2022/02/24 05:43:25;;;;;;;14.75;4.63;;;;;;;;;;5089116;28;20050;-77
2022/02/24 05:45:51;;;;;;;15.02;5.28;;;;;;;;;;5092660;28;20028;-76
2022/02/24 05:48:17;;;;;;;12.18;4.28;;;;;;;;;;5074355;28;20447;-76
2022/02/24 05:50:46;;;;;;;12.43;4.25;;;;;;;;;;5092327;28;20031;-76
2022/02/24 05:53:12;;;;;;;16.40;4.57;;;;;;;;;;5092343;28;20058;-76
2022/02/24 05:55:38;;;;;;;14.52;4.20;;;;;;;;;;5092556;28;20020;-76
2022/02/24 05:58:04;;;;;;;12.55;4.22;;;;;;;;;;5083367;28;20025;-76
2022/02/24 06:00:31;;;;;;;16.80;5.18;;;;;;;;;;5072050;28;20024;-76
2022/02/24 06:02:57;;;;;;;12.27;4.30;;;;;;;;;;5072210;28;20025;-76
2022/02/24 06:05:23;;;;;;;12.32;3.83;;;;;;;;;;5086931;28;20056;-76
2022/02/24 06:07:49;;;;;;;14.60;4.18;;;;;;;;;;5092362;28;20083;-76
2022/02/24 06:10:15;;;;;;;14.40;4.45;;;;;;;;;;5092559;28;20523;-76
2022/02/24 06:12:41;;;;;;;12.68;3.97;;;;;;;;;;5092544;28;20035;-76
2022/02/24 06:15:08;;;;;;;11.15;3.80;;;;;;;;;;5092097;28;20506;-76
2022/02/24 06:17:35;;;;;;;10.70;3.78;;;;;;;;;;5092086;28;20016;-76
2022/02/24 06:20:01;;;;;;;11.10;3.90;;;;;;;;;;5092472;28;20091;-76
2022/02/24 06:22:27;;;;;;;11.07;3.67;;;;;;;;;;5091910;28;20020;-76
2022/02/24 06:24:53;;;;;;;10.50;3.78;;;;;;;;;;5092275;28;20032;-76
2022/02/24 06:27:20;;;;;;;10.43;3.85;;;;;;;;;;5092159;28;20028;-76
2022/02/24 06:29:46;;;;;;;11.65;3.78;;;;;;;;;;5092191;28;20028;-76
2022/02/24 06:32:13;;;;;;;11.35;4.07;;;;;;;;;;5082350;28;20078;-76
2022/02/24 06:34:42;;;;;;;13.98;4.32;;;;;;;;;;5071670;28;20036;-74
2022/02/24 06:37:08;;;;;;;12.85;4.13;;;;;;;;;;5071904;28;20487;-75
2022/02/24 06:39:35;;;;;;;14.55;4.25;;;;;;;;;;5071913;28;20475;-74
2022/02/24 06:42:01;;;;;;;11.13;3.80;;;;;;;;;;5059206;28;20021;-75
2022/02/24 06:44:27;;;;;;;12.70;4.30;;;;;;;;;;5092212;28;20440;-75
2022/02/24 06:46:54;;;;;;;11.18;4.25;;;;;;;;;;5093710;28;20039;-75
2022/02/24 06:49:20;;;;;;;11.52;4.10;;;;;;;;;;5095716;28;20488;-75
2022/02/24 06:51:46;;;;;;;10.65;3.70;;;;;;;;;;5095097;28;20039;-76
2022/02/24 06:54:12;;;;;;;11.80;3.70;;;;;;;;;;5095698;28;20494;-75
2022/02/24 06:56:38;;;;;;;12.85;3.50;;;;;;;;;;5095506;28;20089;-75
2022/02/24 06:59:05;;;;;;;9.25;3.75;;;;;;;;;;5095598;28;20028;-75
2022/02/24 07:01:32;;;;;;;12.25;4.20;;;;;;;;;;5094844;28;20016;-75
2022/02/24 07:03:58;;;;;;;11.80;4.03;;;;;;;;;;5092111;28;20020;-75
2022/02/24 07:06:24;;;;;;;14.57;4.07;;;;;;;;;;5075029;28;20025;-75
2022/02/24 07:08:50;;;;;;;14.25;4.13;;;;;;;;;;5075048;28;20054;-75
2022/02/24 07:11:17;;;;;;;12.70;4.55;;;;;;;;;;5074482;28;20025;-75
2022/02/24 07:13:43;;;;;;;15.60;4.20;;;;;;;;;;5074921;28;20054;-75
2022/02/24 07:16:09;;;;;;;11.52;4.25;;;;;;;;;;5056597;28;20021;-75
2022/02/24 07:18:35;;;;;;;12.07;4.00;;;;;;;;;;5075321;28;20064;-75
2022/02/24 07:21:01;;;;;;;13.75;4.00;;;;;;;;;;5075047;28;20032;-75
2022/02/24 07:23:27;;;;;;;13.38;3.72;;;;;;;;;;5074200;28;20040;-75
2022/02/24 07:25:53;;;;;;;10.63;3.92;;;;;;;;;;5074614;28;20021;-75
2022/02/24 07:28:23;;;;;;;12.00;3.75;;;;;;;;;;5075157;28;20025;-75
2022/02/24 07:30:49;;;;;;;9.13;3.60;;;;;;;;;;5056589;28;20051;-75
2022/02/24 07:33:16;;;;;;;13.30;4.45;;;;;;;;;;5092518;28;20032;-75
2022/02/24 07:35:42;;;;;;;13.73;4.40;;;;;;;;;;5095021;28;20024;-75
2022/02/24 07:38:08;;;;;;;12.18;4.05;;;;;;;;;;5076585;28;20028;-75
2022/02/24 07:40:34;;;;;;;14.60;3.83;;;;;;;;;;5094758;28;20024;-75
2022/02/24 07:43:00;;;;;;;14.73;4.13;;;;;;;;;;5081215;28;20399;-75
2022/02/24 07:45:27;;;;;;;14.88;4.32;;;;;;;;;;5074636;28;20108;-76
2022/02/24 07:47:53;;;;;;;13.77;4.70;;;;;;;;;;5074571;28;20029;-75
2022/02/24 07:50:19;;;;;;;9.48;3.63;;;;;;;;;;5074371;28;20521;-75
2022/02/24 07:52:46;;;;;;;13.07;3.88;;;;;;;;;;5074584;28;20490;-75
2022/02/24 07:55:13;;;;;;;10.38;4.38;;;;;;;;;;5074030;28;20494;-75
2022/02/24 07:57:40;;;;;;;16.35;4.80;;;;;;;;;;5055481;28;20024;-75
2022/02/24 08:00:08;;;;;;;21.40;8.35;;;;;;;;;;5074022;28;20020;-75
2022/02/24 08:02:34;;;;;;;12.65;4.55;;;;;;;;;;5067952;28;20087;-75
2022/02/24 08:05:01;;;;;;;11.30;4.78;;;;;;;;;;5062586;28;20044;-75
2022/02/24 08:07:27;;;;;;;11.25;4.03;;;;;;;;;;5035901;28;20047;-77
2022/02/24 08:09:53;;;;;;;15.35;4.47;;;;;;;;;;5051002;28;20029;-75
2022/02/24 08:15:04;;;;;;;11.65;4.53;;;;;;;;;;5050171;28;20086;-76
2022/02/24 08:17:30;;;;;;;15.85;4.65;;;;;;;;;;5045370;28;20036;-76
2022/02/24 08:19:56;;;;;;;15.15;4.40;;;;;;;;;;5051321;28;20391;-76
2022/02/24 08:22:22;;;;;;;11.85;3.80;;;;;;;;;;5046495;28;20504;-76
2022/02/24 08:24:48;;;;;;;12.00;3.83;;;;;;;;;;5051257;28;20016;-76
2022/02/24 08:27:14;;;;;;;12.48;4.05;;;;;;;;;;5063952;28;20521;-75
2022/02/24 08:29:40;;;;;;;10.80;4.05;;;;;;;;;;5076055;28;20521;-74
2022/02/24 08:32:07;;;;;;;17.30;3.80;;;;;;;;;;5068179;28;20028;-79
2022/02/24 08:34:33;;;;;;;10.07;3.58;;;;;;;;;;5054680;28;20027;-76
2022/02/24 08:36:59;;;;;;;9.98;3.65;;;;;;;;;;5049028;28;20021;-75
2022/02/24 08:39:25;;;;;;;13.93;4.32;;;;;;;;;;5048793;28;20031;-77
2022/02/24 08:41:51;;;;;;;14.05;4.03;;;;;;;;;;5065217;28;20373;-77
2022/02/24 08:44:18;;;;;;;11.98;3.50;;;;;;;;;;5040636;28;20478;-77
2022/02/24 08:46:44;;;;;;;11.88;4.13;;;;;;;;;;5028535;28;20500;-77
2022/02/24 08:49:12;;;;;;;13.50;3.58;;;;;;;;;;5040398;28;20113;-76
2022/02/24 08:51:38;;;;;;;13.70;4.22;;;;;;;;;;5043039;28;20181;-77
2022/02/24 08:54:04;;;;;;;16.27;4.25;;;;;;;;;;5040362;28;20025;-76
2022/02/24 08:56:30;;;;;;;13.38;4.28;;;;;;;;;;5052058;28;20046;-75
2022/02/24 08:58:56;;;;;;;17.55;6.65;;;;;;;;;;5053127;28;20419;-75
2022/02/24 09:01:22;;;;;;;12.63;4.47;;;;;;;;;;5046248;28;20032;-75
2022/02/24 09:03:48;;;;;;;13.15;4.78;;;;;;;;;;5063361;28;20036;-75
2022/02/24 09:06:16;;;;;;;13.13;4.45;;;;;;;;;;5056308;28;20474;-76
2022/02/24 09:08:43;;;;;;;12.02;4.47;;;;;;;;;;5044775;28;20455;-76
2022/02/24 09:11:09;;;;;;;16.20;5.43;;;;;;;;;;5059654;28;20033;-76
2022/02/24 09:13:39;;;;;;;18.67;5.35;;;;;;;;;;5064370;28;20031;-79
2022/02/24 09:16:05;;;;;;;21.85;7.90;;;;;;;;;;5060850;28;20033;-76
2022/02/24 09:18:31;;;;;;;16.48;4.80;;;;;;;;;;5063576;28;20442;-75
2022/02/24 09:20:58;;;;;;;23.67;8.15;;;;;;;;;;5040878;28;20044;-77
2022/02/24 09:23:24;;;;;;;130.63;55.28;;;;;;;;;;5059680;28;20403;-76
2022/02/24 09:25:50;;;;;;;35.67;11.60;;;;;;;;;;5044807;28;20025;-76
2022/02/24 09:28:17;;;;;;;24.83;10.80;;;;;;;;;;5044804;28;20025;-77
2022/02/24 09:30:43;;;;;;;39.13;17.95;;;;;;;;;;5056193;28;20423;-77
2022/02/24 09:33:09;;;;;;;19.08;7.45;;;;;;;;;;5057346;28;20043;-75
2022/02/24 09:35:36;;;;;;;17.08;5.72;;;;;;;;;;5063451;28;20115;-76
2022/02/24 09:38:02;;;;;;;33.92;13.15;;;;;;;;;;5051344;28;20459;-76
2022/02/24 09:40:30;;;;;;;17.77;5.93;;;;;;;;;;5062970;28;20070;-76
2022/02/24 09:42:56;;;;;;;26.60;10.73;;;;;;;;;;5063140;28;20032;-75
2022/02/24 09:45:22;;;;;;;19.08;6.72;;;;;;;;;;5065578;28;20075;-77
2022/02/24 09:47:51;;;;;;;15.10;5.43;;;;;;;;;;5053688;28;20292;-76
2022/02/24 09:50:18;;;;;;;22.48;11.15;;;;;;;;;;5085016;28;20544;-77
2022/02/24 09:52:44;;;;;;;122.78;55.58;;;;;;;;;;5082246;28;20036;-76
2022/02/24 09:55:10;;;;;;;45.95;20.23;;;;;;;;;;5068422;28;20024;-75
2022/02/24 09:57:37;;;;;;;65.07;25.00;;;;;;;;;;5067433;28;20041;-75
2022/02/24 10:00:06;;;;;;;56.28;21.13;;;;;;;;;;5083854;28;20033;-76
2022/02/24 10:02:33;;;;;;;57.88;24.77;;;;;;;;;;5044793;28;20178;-78
2022/02/24 10:05:07;;;;;;;63.22;25.65;;;;;;;;;;5039942;28;20017;-76
2022/02/24 10:07:38;;;;;;;59.03;25.48;;;;;;;;;;5048247;28;20415;-77
2022/02/24 10:10:43;;;;;;;48.30;20.45;;;;;;;;;;5061326;28;20025;-75
2022/02/24 10:13:09;;;;;;;70.15;27.27;;;;;;;;;;4983404;28;20045;-80
2022/02/24 10:15:40;;;;;;;45.10;17.08;;;;;;;;;;5003433;28;20153;-76
2022/02/24 10:18:16;;;;;;;57.15;23.83;;;;;;;;;;5035836;28;20051;-78
2022/02/24 10:20:45;;;;;;;88.07;37.20;;;;;;;;;;5028181;28;20035;-78
2022/02/24 10:23:12;;;;;;;71.53;30.60;;;;;;;;;;5030939;28;20024;-79
2022/02/24 10:25:39;;;;;;;62.55;23.90;;;;;;;;;;5048525;28;20037;-78
2022/02/24 10:28:06;;;;;;;63.00;25.33;;;;;;;;;;5048814;28;20037;-79
2022/02/24 10:30:32;;;;;;;75.35;27.50;;;;;;;;;;5048784;28;20029;-79
2022/02/24 10:33:00;;;;;;;76.75;30.92;;;;;;;;;;5054414;28;20025;-77
2022/02/24 10:35:37;;;;;;;62.50;25.63;;;;;;;;;;5060596;28;20074;-77
2022/02/24 10:38:13;;;;;;;78.72;32.28;;;;;;;;;;5059749;28;20024;-76
2022/02/24 10:40:41;;;;;;;66.07;27.05;;;;;;;;;;5036495;28;20037;-77
2022/02/24 10:43:13;;;;;;;67.60;27.45;;;;;;;;;;5077104;28;20024;-80
2022/02/24 10:45:39;;;;;;;70.50;28.55;;;;;;;;;;5071997;28;20086;-78
2022/02/24 10:48:09;;;;;;;63.78;27.33;;;;;;;;;;5065654;28;20031;-82
2022/02/24 10:50:51;;;;;;;51.50;20.77;;;;;;;;;;5046560;28;20586;-77
2022/02/24 10:53:21;;;;;;;72.63;31.45;;;;;;;;;;5044322;28;20465;-78
2022/02/24 10:56:03;;;;;;;67.88;26.35;;;;;;;;;;5046202;28;20086;-79
2022/02/24 10:58:34;;;;;;;67.22;26.73;;;;;;;;;;5040915;28;20021;-77
2022/02/24 11:01:07;;;;;;;70.68;27.30;;;;;;;;;;5058538;28;20021;-81
2022/02/24 11:03:34;;;;;;;62.22;24.83;;;;;;;;;;5050886;28;20053;-78
2022/02/24 11:06:02;;;;;;;72.97;33.20;;;;;;;;;;5090406;28;20034;-77
2022/02/24 11:08:28;;;;;;;57.65;25.40;;;;;;;;;;5089951;28;20048;-80
2022/02/24 11:10:56;;;;;;;48.40;19.60;;;;;;;;;;5064333;28;20157;-81
2022/02/24 11:13:23;;;;;;;50.17;21.90;;;;;;;;;;5071178;28;20039;-81
2022/02/24 11:15:50;;;;;;;40.20;17.95;;;;;;;;;;5071465;28;20040;-80
2022/02/24 11:18:19;;;;;;;39.33;16.58;;;;;;;;;;5070168;28;20024;-79
2022/02/24 11:20:45;;;;;;;52.38;24.75;;;;;;;;;;5052930;28;20086;-79
2022/02/24 11:23:12;;;;;;;61.80;30.30;;;;;;;;;;5056918;28;20415;-79
2022/02/24 11:25:43;;;;;;;69.97;35.08;;;;;;;;;;5051174;28;20106;-79
2022/02/24 11:28:09;;;;;;;80.57;42.50;;;;;;;;;;5038729;28;20068;-80
2022/02/24 11:30:36;;;;;;;69.18;40.38;;;;;;;;;;5050307;28;20123;-80
2022/02/24 11:33:02;;;;;;;76.38;42.88;;;;;;;;;;5082578;28;20087;-77
2022/02/24 11:35:31;;;;;;;82.25;47.03;;;;;;;;;;5073372;28;20060;-77
2022/02/24 11:38:07;;;;;;;64.90;37.47;;;;;;;;;;5067601;28;20017;-79
2022/02/24 11:40:36;;;;;;;68.00;39.70;;;;;;;;;;5070574;28;20024;-79
2022/02/24 11:43:03;;;;;;;61.05;35.17;;;;;;;;;;5065160;28;20028;-79
2022/02/24 11:45:31;;;;;;;68.35;40.00;;;;;;;;;;5084052;28;20036;-79
2022/02/24 11:48:23;;;;;;;62.33;34.78;;;;;;;;;;5049594;28;20123;-79
2022/02/24 11:50:55;;;;;;;60.38;38.10;;;;;;;;;;5046524;28;20145;-79
2022/02/24 11:53:27;;;;;;;31.85;17.60;;;;;;;;;;5049835;28;20029;-80
2022/02/24 11:55:55;;;;;;;59.17;32.85;;;;;;;;;;5063283;28;20032;-79
2022/02/24 11:58:38;;;;;;;40.03;20.42;;;;;;;;;;5035503;28;20025;-79
2022/02/24 12:01:11;;;;;;;25.55;13.43;;;;;;;;;;5047461;28;20029;-79
2022/02/24 12:03:38;;;;;;;;;;;;;;;;;;5038686;28;20035;-79
2022/02/24 12:06:07;;;;;;;49.30;27.75;;;;;;;;;;5060826;28;19923;-80
2022/02/24 12:08:53;;;;;;;43.63;21.17;;;;;;;;;;5052511;28;20496;-79
2022/02/24 12:11:29;;;;;;;39.35;23.45;;;;;;;;;;5046863;28;20396;-80
2022/02/24 12:13:55;;;;;;;45.15;29.95;;;;;;;;;;5048880;28;20029;-81
2022/02/24 12:16:24;;;;;;;42.88;26.73;;;;;;;;;;5057837;28;20024;-81
2022/02/24 12:18:51;;;;;;;31.83;16.88;;;;;;;;;;5040544;28;20419;-81
2022/02/24 12:21:30;;;;;;;44.03;27.05;;;;;;;;;;5049771;28;20051;-80
2022/02/24 12:23:58;;;;;;;29.88;17.80;;;;;;;;;;5042361;28;20415;-78
2022/02/24 12:26:37;;;;;;;23.35;13.30;;;;;;;;;;5036147;28;20035;-78
2022/02/24 12:29:20;;;;;;;15.35;8.02;;;;;;;;;;5058605;28;20031;-77
2022/02/24 12:31:47;;;;;;;43.63;25.17;;;;;;;;;;5064693;28;20017;-76
2022/02/24 12:34:13;;;;;;;67.38;44.65;;;;;;;;;;5062915;28;20025;-77
2022/02/24 12:36:39;;;;;;;49.65;34.75;;;;;;;;;;5078695;28;20034;-77
2022/02/24 12:39:05;;;;;;;56.85;38.95;;;;;;;;;;5048430;28;20028;-77
2022/02/24 12:41:31;;;;;;;37.22;22.33;;;;;;;;;;5046729;28;20529;-76
2022/02/24 12:43:58;;;;;;;42.70;24.52;;;;;;;;;;5060824;28;20043;-76
2022/02/24 12:46:24;;;;;;;60.17;37.22;;;;;;;;;;5063508;28;20468;-76
2022/02/24 12:48:50;;;;;;;59.47;38.53;;;;;;;;;;5055539;28;20040;-77
2022/02/24 12:51:22;;;;;;;58.15;40.33;;;;;;;;;;5055659;28;20028;-76
2022/02/24 12:53:49;;;;;;;38.17;23.33;;;;;;;;;;5059920;28;20266;-77
2022/02/24 12:56:17;;;;;;;38.45;23.95;;;;;;;;;;5055962;28;20526;-76
2022/02/24 12:58:45;;;;;;;41.78;25.75;;;;;;;;;;5060055;28;20768;-79
2022/02/24 13:01:13;;;;;;;27.75;18.13;;;;;;;;;;5062993;28;20036;-80
2022/02/24 13:03:40;;;;;;;29.83;16.17;;;;;;;;;;5059384;28;20061;-80
2022/02/24 13:06:06;;;;;;;29.77;19.13;;;;;;;;;;5057782;28;20078;-82
2022/02/24 13:11:23;;;;;;;23.08;14.38;;;;;;;;;;5049705;28;20562;-76
2022/02/24 13:13:50;;;;;;;27.20;17.52;;;;;;;;;;5057559;28;20027;-77
2022/02/24 13:16:16;;;;;;;28.85;18.92;;;;;;;;;;5066746;28;20025;-77
2022/02/24 13:18:43;;;;;;;31.83;20.42;;;;;;;;;;5068056;28;20109;-78
2022/02/24 13:21:10;;;;;;;18.98;11.88;;;;;;;;;;5050082;28;20037;-78
2022/02/24 13:23:37;;;;;;;20.63;10.70;;;;;;;;;;5063754;28;20516;-79
2022/02/24 13:26:04;;;;;;;21.20;12.43;;;;;;;;;;5056219;28;20024;-80
2022/02/24 13:28:33;;;;;;;17.02;9.52;;;;;;;;;;5066302;28;20036;-79
2022/02/24 13:31:00;;;;;;;20.17;11.20;;;;;;;;;;5058880;28;20033;-78
2022/02/24 13:33:35;;;;;;;29.85;13.88;;;;;;;;;;5061324;28;20025;-79
2022/02/24 13:36:01;;;;;;;16.08;8.13;;;;;;;;;;5049297;28;20079;-78
2022/02/24 13:38:39;;;;;;;19.52;9.57;;;;;;;;;;5030869;28;20032;-78
2022/02/24 13:41:10;;;;;;;15.40;10.52;;;;;;;;;;5031552;28;20488;-75
2022/02/24 13:43:36;;;;;;;13.07;7.43;;;;;;;;;;5067038;28;20075;-75
2022/02/24 13:46:03;;;;;;;12.93;5.85;;;;;;;;;;5054582;28;20539;-77
2022/02/24 13:48:36;;;;;;;12.02;4.28;;;;;;;;;;5067814;28;20029;-79
2022/02/24 13:51:03;;;;;;;13.65;5.80;;;;;;;;;;5050380;28;20551;-78
2022/02/24 13:53:30;;;;;;;12.73;7.00;;;;;;;;;;5052547;28;20108;-77
2022/02/24 13:55:58;;;;;;;11.52;6.60;;;;;;;;;;5046673;28;20074;-76
2022/02/24 13:58:25;;;;;;;13.75;7.65;;;;;;;;;;5067083;28;20036;-76
2022/02/24 14:00:58;;;;;;;9.32;5.22;;;;;;;;;;5069292;28;20040;-75
2022/02/24 14:03:29;;;;;;;14.48;7.72;;;;;;;;;;5050415;28;20378;-77
2022/02/24 14:06:04;;;;;;;9.93;5.63;;;;;;;;;;5066991;28;20032;-76
2022/02/24 14:08:30;;;;;;;12.85;5.97;;;;;;;;;;5064032;28;20049;-76
2022/02/24 14:11:07;;;;;;;10.98;4.57;;;;;;;;;;5060107;28;20084;-76
2022/02/24 14:13:33;;;;;;;9.18;4.50;;;;;;;;;;5054508;28;20024;-76
2022/02/24 14:15:59;;;;;;;11.90;4.55;;;;;;;;;;5065079;28;20028;-76
2022/02/24 14:18:25;;;;;;;10.55;4.68;;;;;;;;;;5058927;28;20599;-78
2022/02/24 14:20:51;;;;;;;10.15;4.28;;;;;;;;;;5068355;28;20017;-79
2022/02/24 14:23:17;;;;;;;10.15;4.57;;;;;;;;;;5042137;28;20456;-77
2022/02/24 14:25:44;;;;;;;11.43;4.57;;;;;;;;;;5058431;28;20517;-78
2022/02/24 14:28:10;;;;;;;10.55;3.65;;;;;;;;;;5035345;28;20045;-77
2022/02/24 14:30:36;;;;;;;8.77;3.80;;;;;;;;;;5072603;28;20028;-78
2022/02/24 14:33:02;;;;;;;11.50;4.50;;;;;;;;;;5069165;28;20033;-79